sensor_id;sensor_type;location;lat;lon;timestamp;pressure;altitude;pressure_sealevel;temperature;humidity
71966;BME280;59836;52.132;5.442;2023-12-29T00:00:28;100665.25;;;9.99;100.00
71966;BME280;59836;52.132;5.442;2023-12-29T00:02:55;100653.03;;;10.02;100.00
71966;BME280;59836;52.132;5.442;2023-12-29T00:05:21;100659.84;;;10.04;100.00
71966;BME280;59836;52.132;5.442;2023-12-29T00:07:48;100665.25;;;10.04;100.00
71966;BME280;59836;52.132;5.442;2023-12-29T00:10:15;100643.56;;;10.04;100.00
71966;BME280;59836;52.132;5.442;2023-12-29T00:12:41;100648.72;;;10.06;100.00
71966;BME280;59836;52.132;5.442;2023-12-29T00:15:08;100640.59;;;10.06;100.00
71966;BME280;59836;52.132;5.442;2023-12-29T00:17:38;100651.44;;;10.06;100.00
71966;BME280;59836;52.132;5.442;2023-12-29T00:20:07;100651.44;;;10.06;100.00
71966;BME280;59836;52.132;5.442;2023-12-29T00:22:34;100652.78;;;10.03;100.00
71966;BME280;59836;52.132;5.442;2023-12-29T00:25:01;100656.03;;;9.95;100.00
71966;BME280;59836;52.132;5.442;2023-12-29T00:27:27;100658.47;;;9.92;100.00
71966;BME280;59836;52.132;5.442;2023-12-29T00:29:54;100640.03;;;9.88;100.00
71966;BME280;59836;52.132;5.442;2023-12-29T00:32:21;100641.94;;;9.83;100.00
71966;BME280;59836;52.132;5.442;2023-12-29T00:34:48;100643.03;;;9.82;100.00
71966;BME280;59836;52.132;5.442;2023-12-29T00:37:14;100647.06;;;9.79;100.00
71966;BME280;59836;52.132;5.442;2023-12-29T00:39:43;100638.13;;;9.79;100.00
71966;BME280;59836;52.132;5.442;2023-12-29T00:42:12;100644.91;;;9.76;100.00
71966;BME280;59836;52.132;5.442;2023-12-29T00:44:45;100624.59;;;9.79;100.00
71966;BME280;59836;52.132;5.442;2023-12-29T00:47:12;100625.69;;;9.78;100.00
71966;BME280;59836;52.132;5.442;2023-12-29T00:50:02;100609.44;;;9.78;100.00
71966;BME280;59836;52.132;5.442;2023-12-29T00:52:28;100605.34;;;9.80;100.00
71966;BME280;59836;52.132;5.442;2023-12-29T00:54:55;100603.19;;;9.82;100.00
71966;BME280;59836;52.132;5.442;2023-12-29T00:57:22;100611.06;;;9.84;100.00
71966;BME280;59836;52.132;5.442;2023-12-29T00:59:48;100606.19;;;9.86;100.00
71966;BME280;59836;52.132;5.442;2023-12-29T01:02:23;100617.28;;;9.89;100.00
71966;BME280;59836;52.132;5.442;2023-12-29T01:04:50;100609.44;;;9.93;100.00
71966;BME280;59836;52.132;5.442;2023-12-29T01:07:17;100614.84;;;9.93;100.00
71966;BME280;59836;52.132;5.442;2023-12-29T01:09:43;100605.66;;;9.94;100.00
71966;BME280;59836;52.132;5.442;2023-12-29T01:12:10;100614.31;;;9.96;100.00
71966;BME280;59836;52.132;5.442;2023-12-29T01:14:47;100617.56;;;9.98;100.00
71966;BME280;59836;52.132;5.442;2023-12-29T01:17:14;100616.47;;;9.99;100.00
71966;BME280;59836;52.132;5.442;2023-12-29T01:19:41;100587.22;;;10.01;100.00
71966;BME280;59836;52.132;5.442;2023-12-29T01:22:08;100622.44;;;10.01;100.00
71966;BME280;59836;52.132;5.442;2023-12-29T01:24:34;100614.84;;;10.03;100.00
71966;BME280;59836;52.132;5.442;2023-12-29T01:27:11;100605.66;;;10.04;100.00
71966;BME280;59836;52.132;5.442;2023-12-29T01:29:38;100609.44;;;10.03;100.00
71966;BME280;59836;52.132;5.442;2023-12-29T01:32:06;100594.81;;;10.04;100.00
71966;BME280;59836;52.132;5.442;2023-12-29T01:34:34;100612.94;;;10.04;100.00
71966;BME280;59836;52.132;5.442;2023-12-29T01:37:02;100602.94;;;10.04;100.00
71966;BME280;59836;52.132;5.442;2023-12-29T01:39:33;100595.91;;;10.03;100.00
71966;BME280;59836;52.132;5.442;2023-12-29T01:42:01;100587.75;;;10.03;100.00
71966;BME280;59836;52.132;5.442;2023-12-29T01:44:32;100600.22;;;10.04;100.00
71966;BME280;59836;52.132;5.442;2023-12-29T01:47:05;100586.69;;;10.04;100.00
71966;BME280;59836;52.132;5.442;2023-12-29T01:49:37;100605.66;;;10.04;100.00
71966;BME280;59836;52.132;5.442;2023-12-29T01:52:04;100610.25;;;10.04;100.00
71966;BME280;59836;52.132;5.442;2023-12-29T01:54:36;100595.91;;;10.03;100.00
71966;BME280;59836;52.132;5.442;2023-12-29T01:57:07;100599.69;;;10.02;100.00
71966;BME280;59836;52.132;5.442;2023-12-29T01:59:35;100602.41;;;10.02;100.00
71966;BME280;59836;52.132;5.442;2023-12-29T02:02:02;100600.47;;;10.03;100.00
71966;BME280;59836;52.132;5.442;2023-12-29T02:04:30;100591.56;;;10.02;100.00
71966;BME280;59836;52.132;5.442;2023-12-29T02:06:57;100599.69;;;10.02;100.00
71966;BME280;59836;52.132;5.442;2023-12-29T02:09:24;100603.19;;;10.03;100.00
71966;BME280;59836;52.132;5.442;2023-12-29T02:11:53;100613.22;;;10.02;100.00
71966;BME280;59836;52.132;5.442;2023-12-29T02:14:27;100608.91;;;10.01;100.00
71966;BME280;59836;52.132;5.442;2023-12-29T02:19:42;100617.03;;;10.01;100.00
71966;BME280;59836;52.132;5.442;2023-12-29T02:22:12;100609.69;;;10.02;100.00
71966;BME280;59836;52.132;5.442;2023-12-29T02:24:39;100615.41;;;10.00;100.00
71966;BME280;59836;52.132;5.442;2023-12-29T02:29:50;100611.06;;;9.99;100.00
71966;BME280;59836;52.132;5.442;2023-12-29T02:32:20;100614.56;;;10.00;100.00
71966;BME280;59836;52.132;5.442;2023-12-29T02:34:59;100616.47;;;9.99;100.00
71966;BME280;59836;52.132;5.442;2023-12-29T02:37:28;100610.53;;;9.97;100.00
71966;BME280;59836;52.132;5.442;2023-12-29T02:39:56;100599.69;;;9.97;100.00
71966;BME280;59836;52.132;5.442;2023-12-29T02:42:34;100611.88;;;9.95;100.00
71966;BME280;59836;52.132;5.442;2023-12-29T02:45:01;100619.75;;;9.96;100.00
71966;BME280;59836;52.132;5.442;2023-12-29T02:47:28;100607.28;;;9.95;100.00
71966;BME280;59836;52.132;5.442;2023-12-29T02:49:55;100617.81;;;9.92;100.00
71966;BME280;59836;52.132;5.442;2023-12-29T02:52:21;100612.16;;;9.93;100.00
71966;BME280;59836;52.132;5.442;2023-12-29T02:54:48;100613.78;;;9.94;100.00
71966;BME280;59836;52.132;5.442;2023-12-29T02:57:15;100619.72;;;9.91;100.00
71966;BME280;59836;52.132;5.442;2023-12-29T02:59:41;100611.59;;;9.91;100.00
71966;BME280;59836;52.132;5.442;2023-12-29T03:02:20;100619.19;;;9.89;100.00
71966;BME280;59836;52.132;5.442;2023-12-29T03:04:47;100601.84;;;9.85;100.00
71966;BME280;59836;52.132;5.442;2023-12-29T03:07:13;100625.41;;;9.84;100.00
71966;BME280;59836;52.132;5.442;2023-12-29T03:09:40;100616.47;;;9.84;100.00
71966;BME280;59836;52.132;5.442;2023-12-29T03:12:07;100615.66;;;9.83;100.00
71966;BME280;59836;52.132;5.442;2023-12-29T03:14:33;100608.34;;;9.79;100.00
71966;BME280;59836;52.132;5.442;2023-12-29T03:17:00;100617.56;;;9.78;100.00
71966;BME280;59836;52.132;5.442;2023-12-29T03:19:27;100623.22;;;9.76;100.00
71966;BME280;59836;52.132;5.442;2023-12-29T03:21:54;100618.09;;;9.74;100.00
71966;BME280;59836;52.132;5.442;2023-12-29T03:24:21;100628.38;;;9.72;100.00
71966;BME280;59836;52.132;5.442;2023-12-29T03:26:57;100622.41;;;9.70;100.00
71966;BME280;59836;52.132;5.442;2023-12-29T03:29:23;100619.97;;;9.69;100.00
71966;BME280;59836;52.132;5.442;2023-12-29T03:31:50;100626.47;;;9.68;100.00
71966;BME280;59836;52.132;5.442;2023-12-29T03:34:16;100613.75;;;9.68;100.00
71966;BME280;59836;52.132;5.442;2023-12-29T03:36:43;100626.75;;;9.66;100.00
71966;BME280;59836;52.132;5.442;2023-12-29T03:39:12;100617.53;;;9.67;100.00
71966;BME280;59836;52.132;5.442;2023-12-29T03:41:43;100610.50;;;9.66;100.00
71966;BME280;59836;52.132;5.442;2023-12-29T03:44:11;100608.88;;;9.65;100.00
71966;BME280;59836;52.132;5.442;2023-12-29T03:46:39;100621.59;;;9.65;100.00
71966;BME280;59836;52.132;5.442;2023-12-29T03:49:06;100629.72;;;9.65;100.00
71966;BME280;59836;52.132;5.442;2023-12-29T03:55:18;100607.78;;;9.61;100.00
71966;BME280;59836;52.132;5.442;2023-12-29T03:57:45;100597.75;;;9.62;100.00
71966;BME280;59836;52.132;5.442;2023-12-29T04:00:13;100601.28;;;9.62;100.00
71966;BME280;59836;52.132;5.442;2023-12-29T04:02:43;100602.91;;;9.63;100.00
71966;BME280;59836;52.132;5.442;2023-12-29T04:05:10;100594.78;;;9.63;100.00
71966;BME280;59836;52.132;5.442;2023-12-29T04:07:39;100610.50;;;9.66;100.00
71966;BME280;59836;52.132;5.442;2023-12-29T04:10:07;100597.75;;;9.67;100.00
71966;BME280;59836;52.132;5.442;2023-12-29T04:12:35;100594.25;;;9.66;100.00
71966;BME280;59836;52.132;5.442;2023-12-29T04:15:03;100581.81;;;9.65;100.00
71966;BME280;59836;52.132;5.442;2023-12-29T04:17:30;100587.22;;;9.65;100.00
71966;BME280;59836;52.132;5.442;2023-12-29T04:19:57;100589.38;;;9.63;100.00
71966;BME280;59836;52.132;5.442;2023-12-29T04:22:23;100595.88;;;9.62;100.00
71966;BME280;59836;52.132;5.442;2023-12-29T04:24:50;100593.72;;;9.64;100.00
71966;BME280;59836;52.132;5.442;2023-12-29T04:27:18;100582.88;;;9.64;100.00
71966;BME280;59836;52.132;5.442;2023-12-29T04:29:45;100574.75;;;9.64;100.00
71966;BME280;59836;52.132;5.442;2023-12-29T04:32:12;100579.34;;;9.64;100.00
71966;BME280;59836;52.132;5.442;2023-12-29T04:34:43;100592.09;;;9.63;100.00
71966;BME280;59836;52.132;5.442;2023-12-29T04:37:35;100581.25;;;9.63;100.00
71966;BME280;59836;52.132;5.442;2023-12-29T04:40:02;100583.44;;;9.66;100.00
71966;BME280;59836;52.132;5.442;2023-12-29T04:42:28;100595.34;;;9.65;100.00
71966;BME280;59836;52.132;5.442;2023-12-29T04:44:59;100596.41;;;9.64;100.00
71966;BME280;59836;52.132;5.442;2023-12-29T04:47:28;100601.84;;;9.64;100.00
71966;BME280;59836;52.132;5.442;2023-12-29T04:49:55;100601.84;;;9.64;100.00
71966;BME280;59836;52.132;5.442;2023-12-29T04:52:29;100580.16;;;9.64;100.00
71966;BME280;59836;52.132;5.442;2023-12-29T04:54:55;100594.25;;;9.66;100.00
71966;BME280;59836;52.132;5.442;2023-12-29T04:57:22;100595.06;;;9.67;100.00
71966;BME280;59836;52.132;5.442;2023-12-29T04:59:49;100590.47;;;9.67;100.00
71966;BME280;59836;52.132;5.442;2023-12-29T05:02:16;100583.69;;;9.70;100.00
71966;BME280;59836;52.132;5.442;2023-12-29T05:04:44;100593.16;;;9.67;100.00
71966;BME280;59836;52.132;5.442;2023-12-29T05:07:32;100579.63;;;9.67;100.00
71966;BME280;59836;52.132;5.442;2023-12-29T05:09:59;100572.31;;;9.68;100.00
71966;BME280;59836;52.132;5.442;2023-12-29T05:12:32;100585.06;;;9.67;100.00
71966;BME280;59836;52.132;5.442;2023-12-29T05:14:58;100575.00;;;9.68;100.00
71966;BME280;59836;52.132;5.442;2023-12-29T05:17:29;100547.13;;;9.67;100.00
71966;BME280;59836;52.132;5.442;2023-12-29T05:20:09;100573.38;;;9.67;100.00
71966;BME280;59836;52.132;5.442;2023-12-29T05:22:36;100571.50;;;9.67;100.00
71966;BME280;59836;52.132;5.442;2023-12-29T05:25:03;100580.44;;;9.68;100.00
71966;BME280;59836;52.132;5.442;2023-12-29T05:27:30;100586.13;;;9.66;100.00
71966;BME280;59836;52.132;5.442;2023-12-29T05:29:56;100590.47;;;9.67;100.00
71966;BME280;59836;52.132;5.442;2023-12-29T05:32:23;100579.63;;;9.67;100.00
71966;BME280;59836;52.132;5.442;2023-12-29T05:34:57;100586.69;;;9.68;100.00
71966;BME280;59836;52.132;5.442;2023-12-29T05:37:28;100596.13;;;9.71;100.00
71966;BME280;59836;52.132;5.442;2023-12-29T05:39:57;100583.69;;;9.70;100.00
71966;BME280;59836;52.132;5.442;2023-12-29T05:42:23;100582.88;;;9.69;100.00
71966;BME280;59836;52.132;5.442;2023-12-29T05:44:50;100565.81;;;9.69;100.00
71966;BME280;59836;52.132;5.442;2023-12-29T05:47:20;100582.34;;;9.67;100.00
71966;BME280;59836;52.132;5.442;2023-12-29T05:49:46;100581.25;;;9.68;100.00
71966;BME280;59836;52.132;5.442;2023-12-29T05:52:13;100579.63;;;9.67;100.00
71966;BME280;59836;52.132;5.442;2023-12-29T05:54:50;100575.84;;;9.68;100.00
71966;BME280;59836;52.132;5.442;2023-12-29T05:57:16;100578.00;;;9.66;100.00
71966;BME280;59836;52.132;5.442;2023-12-29T05:59:43;100571.50;;;9.67;100.00
71966;BME280;59836;52.132;5.442;2023-12-29T06:02:09;100578.00;;;9.66;100.00
71966;BME280;59836;52.132;5.442;2023-12-29T06:04:36;100579.09;;;9.65;100.00
71966;BME280;59836;52.132;5.442;2023-12-29T06:07:03;100580.72;;;9.66;100.00
71966;BME280;59836;52.132;5.442;2023-12-29T06:09:29;100594.25;;;9.66;100.00
71966;BME280;59836;52.132;5.442;2023-12-29T06:12:06;100566.34;;;9.66;100.00
71966;BME280;59836;52.132;5.442;2023-12-29T06:14:42;100585.06;;;9.67;100.00
71966;BME280;59836;52.132;5.442;2023-12-29T06:17:08;100559.06;;;9.66;100.00
71966;BME280;59836;52.132;5.442;2023-12-29T06:19:35;100592.09;;;9.68;100.00
71966;BME280;59836;52.132;5.442;2023-12-29T06:22:02;100593.72;;;9.69;100.00
71966;BME280;59836;52.132;5.442;2023-12-29T06:24:28;100586.13;;;9.71;100.00
71966;BME280;59836;52.132;5.442;2023-12-29T06:26:58;100576.38;;;9.70;100.00
71966;BME280;59836;52.132;5.442;2023-12-29T06:29:24;100584.22;;;9.72;100.00
71966;BME280;59836;52.132;5.442;2023-12-29T06:31:51;100592.34;;;9.72;100.00
71966;BME280;59836;52.132;5.442;2023-12-29T06:34:19;100593.97;;;9.73;100.00
71966;BME280;59836;52.132;5.442;2023-12-29T06:36:47;100596.44;;;9.74;100.00
71966;BME280;59836;52.132;5.442;2023-12-29T06:39:18;100591.00;;;9.74;100.00
71966;BME280;59836;52.132;5.442;2023-12-29T06:41:45;100596.44;;;9.74;100.00
71966;BME280;59836;52.132;5.442;2023-12-29T06:44:12;100589.38;;;9.73;100.00
71966;BME280;59836;52.132;5.442;2023-12-29T06:46:38;100593.72;;;9.74;100.00
71966;BME280;59836;52.132;5.442;2023-12-29T06:49:08;100581.25;;;9.73;100.00
71966;BME280;59836;52.132;5.442;2023-12-29T06:51:44;100570.44;;;9.73;100.00
71966;BME280;59836;52.132;5.442;2023-12-29T06:54:12;100576.38;;;9.75;100.00
71966;BME280;59836;52.132;5.442;2023-12-29T06:56:38;100575.84;;;9.73;100.00
71966;BME280;59836;52.132;5.442;2023-12-29T06:59:06;100565.00;;;9.73;100.00
71966;BME280;59836;52.132;5.442;2023-12-29T07:01:32;100567.72;;;9.73;100.00
71966;BME280;59836;52.132;5.442;2023-12-29T07:03:59;100578.56;;;9.73;100.00
71966;BME280;59836;52.132;5.442;2023-12-29T07:06:25;100573.94;;;9.74;100.00
71966;BME280;59836;52.132;5.442;2023-12-29T07:08:52;100558.50;;;9.74;100.00
71966;BME280;59836;52.132;5.442;2023-12-29T07:11:19;100569.34;;;9.74;100.00
71966;BME280;59836;52.132;5.442;2023-12-29T07:13:47;100583.69;;;9.75;100.00
71966;BME280;59836;52.132;5.442;2023-12-29T07:16:14;100591.00;;;9.74;100.00
71966;BME280;59836;52.132;5.442;2023-12-29T07:18:40;100583.44;;;9.71;100.00
71966;BME280;59836;52.132;5.442;2023-12-29T07:21:07;100586.13;;;9.71;100.00
71966;BME280;59836;52.132;5.442;2023-12-29T07:23:40;100571.50;;;9.72;100.00
71966;BME280;59836;52.132;5.442;2023-12-29T07:26:11;100580.44;;;9.73;100.00
71966;BME280;59836;52.132;5.442;2023-12-29T07:28:37;100580.72;;;9.71;100.00
71966;BME280;59836;52.132;5.442;2023-12-29T07:31:04;100582.34;;;9.72;100.00
71966;BME280;59836;52.132;5.442;2023-12-29T07:33:30;100568.25;;;9.70;100.00
71966;BME280;59836;52.132;5.442;2023-12-29T07:35:57;100593.72;;;9.69;100.00
71966;BME280;59836;52.132;5.442;2023-12-29T07:38:24;100589.94;;;9.70;100.00
71966;BME280;59836;52.132;5.442;2023-12-29T07:40:51;100588.31;;;9.69;100.00
71966;BME280;59836;52.132;5.442;2023-12-29T07:43:17;100593.72;;;9.69;100.00
71966;BME280;59836;52.132;5.442;2023-12-29T07:45:44;100599.94;;;9.70;100.00
71966;BME280;59836;52.132;5.442;2023-12-29T07:48:19;100592.88;;;9.69;100.00
71966;BME280;59836;52.132;5.442;2023-12-29T07:50:45;100590.19;;;9.69;100.00
71966;BME280;59836;52.132;5.442;2023-12-29T07:53:12;100592.88;;;9.69;100.00
71966;BME280;59836;52.132;5.442;2023-12-29T07:55:39;100585.06;;;9.67;100.00
71966;BME280;59836;52.132;5.442;2023-12-29T07:58:09;100589.63;;;9.67;100.00
71966;BME280;59836;52.132;5.442;2023-12-29T08:00:37;100604.00;;;9.67;100.00
71966;BME280;59836;52.132;5.442;2023-12-29T08:03:04;100598.59;;;9.67;100.00
71966;BME280;59836;52.132;5.442;2023-12-29T08:05:32;100612.66;;;9.69;100.00
71966;BME280;59836;52.132;5.442;2023-12-29T08:08:00;100625.38;;;9.69;100.00
71966;BME280;59836;52.132;5.442;2023-12-29T08:10:30;100619.97;;;9.69;100.00
71966;BME280;59836;52.132;5.442;2023-12-29T08:12:59;100609.41;;;9.67;100.00
71966;BME280;59836;52.132;5.442;2023-12-29T08:15:26;100607.50;;;9.68;100.00
71966;BME280;59836;52.132;5.442;2023-12-29T08:17:52;100598.59;;;9.67;100.00
71966;BME280;59836;52.132;5.442;2023-12-29T08:20:23;100596.13;;;9.71;100.00
71966;BME280;59836;52.132;5.442;2023-12-29T08:22:50;100608.88;;;9.70;100.00
71966;BME280;59836;52.132;5.442;2023-12-29T08:25:17;100599.41;;;9.73;100.00
71966;BME280;59836;52.132;5.442;2023-12-29T08:27:44;100613.22;;;9.71;100.00
71966;BME280;59836;52.132;5.442;2023-12-29T08:30:11;100621.34;;;9.71;100.00
71966;BME280;59836;52.132;5.442;2023-12-29T08:32:38;100615.09;;;9.71;100.00
71966;BME280;59836;52.132;5.442;2023-12-29T08:35:14;100615.94;;;9.71;100.00
71966;BME280;59836;52.132;5.442;2023-12-29T08:37:41;100615.38;;;9.69;100.00
71966;BME280;59836;52.132;5.442;2023-12-29T08:40:08;100617.53;;;9.67;100.00
71966;BME280;59836;52.132;5.442;2023-12-29T08:42:35;100624.59;;;9.68;100.00
71966;BME280;59836;52.132;5.442;2023-12-29T08:45:06;100618.09;;;9.69;100.00
71966;BME280;59836;52.132;5.442;2023-12-29T08:47:35;100610.50;;;9.71;100.00
71966;BME280;59836;52.132;5.442;2023-12-29T08:50:01;100598.59;;;9.72;100.00
71966;BME280;59836;52.132;5.442;2023-12-29T08:52:28;100601.84;;;9.74;100.00
71966;BME280;59836;52.132;5.442;2023-12-29T08:54:55;100607.81;;;9.71;100.00
71966;BME280;59836;52.132;5.442;2023-12-29T08:57:21;100607.25;;;9.74;100.00
71966;BME280;59836;52.132;5.442;2023-12-29T08:59:48;100605.63;;;9.73;100.00
71966;BME280;59836;52.132;5.442;2023-12-29T09:02:14;100612.38;;;9.71;100.00
71966;BME280;59836;52.132;5.442;2023-12-29T09:04:41;100616.47;;;9.68;100.00
71966;BME280;59836;52.132;5.442;2023-12-29T09:07:07;100612.38;;;9.66;100.00
71966;BME280;59836;52.132;5.442;2023-12-29T09:09:34;100605.09;;;9.66;100.00
71966;BME280;59836;52.132;5.442;2023-12-29T09:12:01;100613.22;;;9.66;100.00
71966;BME280;59836;52.132;5.442;2023-12-29T09:14:29;100606.97;;;9.66;100.00
71966;BME280;59836;52.132;5.442;2023-12-29T09:17:11;100612.66;;;9.64;100.00
71966;BME280;59836;52.132;5.442;2023-12-29T09:19:37;100607.25;;;9.64;100.00
71966;BME280;59836;52.132;5.442;2023-12-29T09:22:06;100619.72;;;9.65;100.00
71966;BME280;59836;52.132;5.442;2023-12-29T09:24:33;100621.88;;;9.63;100.00
71966;BME280;59836;52.132;5.442;2023-12-29T09:26:59;100618.88;;;9.65;100.00
71966;BME280;59836;52.132;5.442;2023-12-29T09:29:26;100622.97;;;9.67;100.00
71966;BME280;59836;52.132;5.442;2023-12-29T09:31:52;100628.09;;;9.69;100.00
71966;BME280;59836;52.132;5.442;2023-12-29T09:34:19;100632.16;;;9.71;100.00
71966;BME280;59836;52.132;5.442;2023-12-29T09:36:46;100638.66;;;9.70;100.00
71966;BME280;59836;52.132;5.442;2023-12-29T09:39:13;100645.19;;;9.74;100.00
71966;BME280;59836;52.132;5.442;2023-12-29T09:41:42;100637.59;;;9.77;100.00
71966;BME280;59836;52.132;5.442;2023-12-29T09:44:13;100646.28;;;9.79;100.00
71966;BME280;59836;52.132;5.442;2023-12-29T09:46:41;100634.91;;;9.82;100.00
71966;BME280;59836;52.132;5.442;2023-12-29T09:49:09;100654.41;;;9.84;100.00
71966;BME280;59836;52.132;5.442;2023-12-29T09:51:36;100646.81;;;9.86;100.00
71966;BME280;59836;52.132;5.442;2023-12-29T09:54:03;100640.88;;;9.89;100.00
71966;BME280;59836;52.132;5.442;2023-12-29T09:56:30;100644.13;;;9.91;100.00
71966;BME280;59836;52.132;5.442;2023-12-29T09:58:57;100631.91;;;9.94;100.00
71966;BME280;59836;52.132;5.442;2023-12-29T10:01:25;100631.66;;;10.00;100.00
71966;BME280;59836;52.132;5.442;2023-12-29T10:03:53;100637.06;;;10.00;100.00
71966;BME280;59836;52.132;5.442;2023-12-29T10:06:23;100649.78;;;10.00;100.00
71966;BME280;59836;52.132;5.442;2023-12-29T10:08:51;100633.81;;;9.98;100.00
71966;BME280;59836;52.132;5.442;2023-12-29T10:11:20;100635.44;;;9.99;100.00
71966;BME280;59836;52.132;5.442;2023-12-29T10:13:50;100636.25;;;10.00;100.00
71966;BME280;59836;52.132;5.442;2023-12-29T10:16:37;100634.38;;;10.00;100.00
71966;BME280;59836;52.132;5.442;2023-12-29T10:21:46;100626.22;;;10.16;100.00
71966;BME280;59836;52.132;5.442;2023-12-29T10:24:21;100638.97;;;10.21;100.00
71966;BME280;59836;52.132;5.442;2023-12-29T10:26:48;100631.91;;;10.19;100.00
71966;BME280;59836;52.132;5.442;2023-12-29T10:29:16;100632.72;;;10.20;100.00
71966;BME280;59836;52.132;5.442;2023-12-29T10:31:45;100628.13;;;10.21;100.00
71966;BME280;59836;52.132;5.442;2023-12-29T10:36:48;100638.66;;;10.22;100.00
71966;BME280;59836;52.132;5.442;2023-12-29T10:39:15;100625.66;;;10.24;100.00
71966;BME280;59836;52.132;5.442;2023-12-29T10:41:42;100645.16;;;10.26;100.00
71966;BME280;59836;52.132;5.442;2023-12-29T10:44:09;100643.00;;;10.28;100.00
71966;BME280;59836;52.132;5.442;2023-12-29T10:46:35;100638.66;;;10.32;100.00
71966;BME280;59836;52.132;5.442;2023-12-29T10:49:08;100642.47;;;10.31;100.00
71966;BME280;59836;52.132;5.442;2023-12-29T10:51:38;100645.47;;;10.30;100.00
71966;BME280;59836;52.132;5.442;2023-12-29T10:54:06;100646.25;;;10.30;100.00
71966;BME280;59836;52.132;5.442;2023-12-29T10:56:33;100644.91;;;10.33;100.00
71966;BME280;59836;52.132;5.442;2023-12-29T10:59:04;100664.97;;;10.32;100.00
71966;BME280;59836;52.132;5.442;2023-12-29T11:01:33;100664.44;;;10.30;100.00
71966;BME280;59836;52.132;5.442;2023-12-29T11:04:06;100665.50;;;10.29;100.00
71966;BME280;59836;52.132;5.442;2023-12-29T11:06:41;100660.09;;;10.29;100.00
71966;BME280;59836;52.132;5.442;2023-12-29T11:09:09;100666.84;;;10.26;100.00
71966;BME280;59836;52.132;5.442;2023-12-29T11:11:37;100659.81;;;10.25;100.00
71966;BME280;59836;52.132;5.442;2023-12-29T11:14:04;100665.22;;;10.25;100.00
71966;BME280;59836;52.132;5.442;2023-12-29T11:16:31;100666.06;;;10.26;100.00
71966;BME280;59836;52.132;5.442;2023-12-29T11:18:58;100684.75;;;10.27;100.00
71966;BME280;59836;52.132;5.442;2023-12-29T11:21:26;100677.69;;;10.31;100.00
71966;BME280;59836;52.132;5.442;2023-12-29T11:23:54;100676.06;;;10.36;100.00
71966;BME280;59836;52.132;5.442;2023-12-29T11:26:20;100674.72;;;10.38;100.00
71966;BME280;59836;52.132;5.442;2023-12-29T11:28:47;100672.59;;;10.40;100.00
71966;BME280;59836;52.132;5.442;2023-12-29T11:31:17;100667.41;;;10.44;100.00
71966;BME280;59836;52.132;5.442;2023-12-29T11:33:53;100672.59;;;10.45;100.00
71966;BME280;59836;52.132;5.442;2023-12-29T11:36:29;100666.06;;;10.46;100.00
71966;BME280;59836;52.132;5.442;2023-12-29T11:42:17;100674.19;;;10.57;100.00
71966;BME280;59836;52.132;5.442;2023-12-29T11:44:46;100679.34;;;10.53;100.00
71966;BME280;59836;52.132;5.442;2023-12-29T11:47:36;100670.66;;;10.56;100.00
71966;BME280;59836;52.132;5.442;2023-12-29T11:50:04;100671.50;;;10.57;100.00
71966;BME280;59836;52.132;5.442;2023-12-29T11:52:35;100677.16;;;10.60;100.00
71966;BME280;59836;52.132;5.442;2023-12-29T11:57:34;100677.72;;;10.57;100.00
71966;BME280;59836;52.132;5.442;2023-12-29T12:00:02;100668.50;;;10.58;100.00
71966;BME280;59836;52.132;5.442;2023-12-29T12:02:32;100662.81;;;10.60;100.00
71966;BME280;59836;52.132;5.442;2023-12-29T12:04:59;100669.56;;;10.62;100.00
71966;BME280;59836;52.132;5.442;2023-12-29T12:09:52;100673.63;;;10.65;100.00
71966;BME280;59836;52.132;5.442;2023-12-29T12:12:40;100674.44;;;10.66;100.00
71966;BME280;59836;52.132;5.442;2023-12-29T12:17:56;100675.53;;;10.70;100.00
71966;BME280;59836;52.132;5.442;2023-12-29T12:20:23;100668.47;;;10.69;100.00
71966;BME280;59836;52.132;5.442;2023-12-29T12:23:01;100670.09;;;10.70;100.00
71966;BME280;59836;52.132;5.442;2023-12-29T12:25:30;100657.34;;;10.70;100.00
71966;BME280;59836;52.132;5.442;2023-12-29T12:28:05;100650.56;;;10.73;100.00
71966;BME280;59836;52.132;5.442;2023-12-29T12:30:33;100657.31;;;10.75;100.00
71966;BME280;59836;52.132;5.442;2023-12-29T12:33:03;100643.50;;;10.77;100.00
71966;BME280;59836;52.132;5.442;2023-12-29T12:35:31;100650.53;;;10.78;100.00
71966;BME280;59836;52.132;5.442;2023-12-29T12:38:14;100648.38;;;10.75;100.00
71966;BME280;59836;52.132;5.442;2023-12-29T12:40:42;100657.06;;;10.72;100.00
71966;BME280;59836;52.132;5.442;2023-12-29T12:43:13;100654.91;;;10.74;100.00
71966;BME280;59836;52.132;5.442;2023-12-29T12:45:48;100650.81;;;10.71;100.00
71966;BME280;59836;52.132;5.442;2023-12-29T12:48:28;100649.72;;;10.72;100.00
71966;BME280;59836;52.132;5.442;2023-12-29T12:50:56;100650.03;;;10.71;100.00
71966;BME280;59836;52.132;5.442;2023-12-29T12:53:23;100648.41;;;10.70;100.00
71966;BME280;59836;52.132;5.442;2023-12-29T12:55:51;100650.03;;;10.71;100.00
71966;BME280;59836;52.132;5.442;2023-12-29T12:58:19;100639.72;;;10.73;100.00
71966;BME280;59836;52.132;5.442;2023-12-29T13:00:50;100636.44;;;10.76;100.00
71966;BME280;59836;52.132;5.442;2023-12-29T13:03:21;100641.31;;;10.79;100.00
71966;BME280;59836;52.132;5.442;2023-12-29T13:05:48;100638.06;;;10.77;100.00
71966;BME280;59836;52.132;5.442;2023-12-29T13:08:16;100639.69;;;10.78;100.00
71966;BME280;59836;52.132;5.442;2023-12-29T13:10:59;100645.13;;;10.78;100.00
71966;BME280;59836;52.132;5.442;2023-12-29T13:13:40;100638.06;;;10.77;100.00
71966;BME280;59836;52.132;5.442;2023-12-29T13:16:07;100639.16;;;10.76;100.00
71966;BME280;59836;52.132;5.442;2023-12-29T13:18:45;100631.56;;;10.73;100.00